createdAt,value
2019-05-28T00:00:13.431Z,100884.41
2019-05-28T00:02:15.658Z,100876.34
2019-05-28T00:04:18.022Z,100880.03
2019-05-28T00:06:20.954Z,100873.80
2019-05-28T00:08:23.191Z,100874.83
2019-05-28T00:10:26.206Z,100880.03
2019-05-28T00:12:28.625Z,100874.63
2019-05-28T00:14:30.380Z,100869.99
2019-05-28T00:16:33.681Z,100868.41
2019-05-28T00:18:35.903Z,100870.70
2019-05-28T00:20:37.994Z,100865.73
2019-05-28T00:22:40.051Z,100864.81
2019-05-28T00:24:42.538Z,100858.92
2019-05-28T00:26:45.738Z,100857.21
2019-05-28T00:28:48.095Z,100856.97
2019-05-28T00:30:50.329Z,100856.98
2019-05-28T00:32:52.811Z,100852.48
2019-05-28T00:34:55.296Z,100845.20
2019-05-28T00:36:57.512Z,100846.60
2019-05-28T00:39:00.944Z,100848.67
2019-05-28T00:41:03.490Z,100844.30
2019-05-28T00:43:07.230Z,100838.76
2019-05-28T00:45:10.299Z,100836.92
2019-05-28T00:47:12.607Z,100826.78
2019-05-28T00:49:14.832Z,100830.45
2019-05-28T00:51:16.952Z,100828.85
2019-05-28T00:53:18.973Z,100825.39
2019-05-28T00:55:21.333Z,100830.92
2019-05-28T00:57:24.309Z,100824.14
2019-05-28T00:59:27.984Z,100819.19
2019-05-28T01:01:30.374Z,100820.78
2019-05-28T01:03:33.526Z,100828.16
2019-05-28T01:05:35.809Z,100823.20
2019-05-28T01:07:38.136Z,100825.39
2019-05-28T01:09:40.502Z,100826.79
2019-05-28T01:11:42.603Z,100823.56
2019-05-28T01:13:44.792Z,100830.25
2019-05-28T01:15:47.066Z,100837.27
2019-05-28T01:17:49.427Z,100834.86
2019-05-28T01:19:52.215Z,100838.06
2019-05-28T01:21:54.714Z,100838.20
2019-05-28T01:23:56.704Z,100833.69
2019-05-28T01:25:59.118Z,100834.28
2019-05-28T01:28:01.080Z,100833.69
2019-05-28T01:30:03.652Z,100834.14
2019-05-28T01:32:07.278Z,100834.63
2019-05-28T01:34:09.204Z,100832.20
2019-05-28T01:36:12.088Z,100834.84
2019-05-28T01:38:14.250Z,100836.67
2019-05-28T01:40:17.012Z,100840.02
2019-05-28T01:42:19.247Z,100832.30
2019-05-28T01:44:21.766Z,100829.32
2019-05-28T01:46:25.640Z,100824.92
2019-05-28T01:48:27.843Z,100826.19
2019-05-28T01:50:30.015Z,100820.78
2019-05-28T01:52:32.082Z,100826.89
2019-05-28T01:54:34.107Z,100819.72
2019-05-28T01:56:36.392Z,100821.11
2019-05-28T01:58:38.308Z,100825.25
2019-05-28T02:00:40.440Z,100824.80
2019-05-28T02:02:42.800Z,100821.57
2019-05-28T02:04:44.819Z,100818.66
2019-05-28T02:06:46.898Z,100821.91
2019-05-28T02:08:49.394Z,100814.77
2019-05-28T02:10:51.826Z,100819.61
2019-05-28T02:12:54.060Z,100813.88
2019-05-28T02:14:56.374Z,100813.39
2019-05-28T02:16:58.559Z,100810.16
2019-05-28T02:19:00.884Z,100813.96
2019-05-28T02:21:03.413Z,100807.86
2019-05-28T02:23:05.242Z,100810.16
2019-05-28T02:25:07.801Z,100814.44
2019-05-28T02:27:10.244Z,100817.31
2019-05-28T02:29:11.825Z,100817.31
2019-05-28T02:31:26.930Z,100815.70
2019-05-28T02:33:18.419Z,100816.63
2019-05-28T02:35:22.462Z,100819.02
2019-05-28T02:37:24.825Z,100821.89
2019-05-28T02:39:27.174Z,100819.70
2019-05-28T02:41:29.248Z,100823.96
2019-05-28T02:43:31.699Z,100818.15
2019-05-28T02:45:34.889Z,100826.27
2019-05-28T02:47:37.114Z,100824.20
2019-05-28T02:49:39.230Z,100820.52
2019-05-28T02:51:41.893Z,100821.89
2019-05-28T02:53:44.193Z,100819.82
2019-05-28T02:55:47.030Z,100813.92
2019-05-28T02:57:50.427Z,100821.66
2019-05-28T02:59:53.699Z,100819.13
2019-05-28T03:01:57.496Z,100826.50
2019-05-28T03:04:02.470Z,100824.69
2019-05-28T03:06:06.549Z,100828.83
2019-05-28T03:08:11.019Z,100827.67
2019-05-28T03:10:13.873Z,100822.72
2019-05-28T03:12:15.886Z,100824.45
2019-05-28T03:14:18.227Z,100825.39
2019-05-28T03:16:22.993Z,100828.38
2019-05-28T03:18:27.171Z,100827.70
2019-05-28T03:20:30.739Z,100829.77
2019-05-28T03:22:35.380Z,100827.20
2019-05-28T03:24:41.032Z,100825.59
2019-05-28T03:26:43.180Z,100825.16
2019-05-28T03:28:45.730Z,100825.59
2019-05-28T03:30:48.521Z,100825.16
2019-05-28T03:32:50.807Z,100826.42
2019-05-28T03:34:53.145Z,100822.63
2019-05-28T03:36:55.434Z,100820.89
2019-05-28T03:38:58.435Z,100827.34
2019-05-28T03:41:01.711Z,100821.92
2019-05-28T03:43:03.961Z,100822.62
2019-05-28T03:45:06.730Z,100822.16
2019-05-28T03:47:10.234Z,100822.84
2019-05-28T03:49:12.612Z,100822.83
2019-05-28T03:51:15.935Z,100821.24
2019-05-28T03:53:17.928Z,100825.14
2019-05-28T03:55:20.042Z,100825.37
2019-05-28T03:57:22.181Z,100828.57
2019-05-28T03:59:24.199Z,100826.04
2019-05-28T04:01:28.136Z,100821.45
2019-05-28T04:03:30.140Z,100822.38
2019-05-28T04:05:32.993Z,100820.30
2019-05-28T04:07:34.783Z,100826.75
2019-05-28T04:09:36.927Z,100823.99
2019-05-28T04:11:44.790Z,100824.10
2019-05-28T04:13:43.206Z,100815.69
2019-05-28T04:15:46.334Z,100822.38
2019-05-28T04:17:49.067Z,100822.12
2019-05-28T04:19:51.440Z,100821.66
2019-05-28T04:21:54.626Z,100820.07
2019-05-28T04:23:56.879Z,100821.92
2019-05-28T04:25:58.930Z,100821.45
2019-05-28T04:28:01.048Z,100815.69
2019-05-28T04:30:03.988Z,100820.42
2019-05-28T04:32:06.180Z,100815.23
2019-05-28T04:34:08.205Z,100813.28
2019-05-28T04:36:10.592Z,100815.58
2019-05-28T04:38:13.780Z,100820.77
2019-05-28T04:40:15.806Z,100820.06
2019-05-28T04:42:18.297Z,100818.46
2019-05-28T04:44:19.995Z,100822.12
2019-05-28T04:46:22.373Z,100824.20
2019-05-28T04:48:25.522Z,100829.03
2019-05-28T04:50:27.542Z,100821.20
2019-05-28T04:52:30.797Z,100830.35
2019-05-28T04:54:33.247Z,100831.23
2019-05-28T04:56:35.403Z,100830.09
2019-05-28T04:58:37.563Z,100821.34
2019-05-28T05:00:39.779Z,100819.96
2019-05-28T05:02:57.747Z,100818.30
2019-05-28T05:04:46.996Z,100824.02
2019-05-28T05:06:49.182Z,100826.73
2019-05-28T05:08:51.211Z,100826.49
2019-05-28T05:10:54.244Z,100828.46
2019-05-28T05:12:57.823Z,100823.34
2019-05-28T05:14:59.728Z,100825.12
2019-05-28T05:17:01.804Z,100821.66
2019-05-28T05:19:04.193Z,100826.79
2019-05-28T05:21:06.211Z,100827.77
2019-05-28T05:23:08.629Z,100825.35
2019-05-28T05:25:11.125Z,100837.44
2019-05-28T05:27:13.152Z,100842.09
2019-05-28T05:29:15.178Z,100850.87
2019-05-28T05:31:17.419Z,100855.54
2019-05-28T05:33:20.728Z,100849.49
2019-05-28T05:35:23.080Z,100849.22
2019-05-28T05:39:09.291Z,100847.39
2019-05-28T05:41:11.143Z,100840.02
2019-05-28T05:43:13.293Z,100840.77
2019-05-28T05:45:15.667Z,100855.33
2019-05-28T05:47:17.773Z,100848.36
2019-05-28T05:49:19.985Z,100851.51
2019-05-28T05:51:22.477Z,100858.94
2019-05-28T05:53:24.208Z,100857.58
2019-05-28T05:55:26.596Z,100855.84
2019-05-28T05:57:28.881Z,100851.13
2019-05-28T05:59:30.997Z,100860.20
2019-05-28T06:01:33.219Z,100859.11
2019-05-28T06:03:40.393Z,100851.87
2019-05-28T06:05:39.532Z,100854.27
2019-05-28T06:07:41.836Z,100857.89
2019-05-28T06:09:44.009Z,100862.31
2019-05-28T06:11:46.644Z,100855.60
2019-05-28T06:13:48.349Z,100863.65
2019-05-28T06:15:50.492Z,100863.02
2019-05-28T06:17:52.595Z,100861.85
2019-05-28T06:19:54.585Z,100870.89
2019-05-28T06:21:57.195Z,100869.87
2019-05-28T06:23:59.118Z,100871.98
2019-05-28T06:26:01.300Z,100874.73
2019-05-28T06:28:03.924Z,100873.59
2019-05-28T06:30:07.903Z,100883.44
2019-05-28T06:32:10.028Z,100891.17
2019-05-28T06:34:12.526Z,100888.95
2019-05-28T06:36:14.624Z,100895.84
2019-05-28T06:38:16.693Z,100892.22
2019-05-28T06:40:19.838Z,100895.63
2019-05-28T06:42:23.031Z,100896.59
2019-05-28T06:44:27.272Z,100899.12
2019-05-28T06:46:30.061Z,100901.13
2019-05-28T06:48:32.357Z,100901.69
2019-05-28T06:50:34.575Z,100905.03
2019-05-28T06:52:36.932Z,100910.15
2019-05-28T06:54:39.443Z,100912.00
2019-05-28T06:56:41.747Z,100913.95
2019-05-28T06:58:44.033Z,100918.50
2019-05-28T07:00:46.155Z,100917.21
2019-05-28T07:02:48.468Z,100913.31
2019-05-28T07:04:50.502Z,100913.07
2019-05-28T07:06:52.744Z,100921.66
2019-05-28T07:08:55.175Z,100923.61
2019-05-28T07:10:58.460Z,100917.58
2019-05-28T07:13:01.725Z,100922.66
2019-05-28T07:15:04.374Z,100930.06
2019-05-28T07:17:07.295Z,100923.33
2019-05-28T07:19:23.381Z,100928.17
2019-05-28T07:21:13.269Z,100935.41
2019-05-28T07:23:15.552Z,100937.67
2019-05-28T07:25:17.695Z,100934.03
2019-05-28T07:27:19.810Z,100939.46
2019-05-28T07:29:22.543Z,100941.14
2019-05-28T07:31:24.601Z,100949.36
2019-05-28T07:33:26.633Z,100950.37
2019-05-28T07:35:44.828Z,100957.62
2019-05-28T07:37:33.466Z,100957.62
2019-05-28T07:39:35.509Z,100960.66
2019-05-28T07:41:39.245Z,100962.71
2019-05-28T07:43:41.311Z,100966.45
2019-05-28T07:45:43.734Z,100971.30
2019-05-28T07:47:47.042Z,100973.70
2019-05-28T07:49:49.150Z,100971.19
2019-05-28T07:51:51.244Z,100976.01
2019-05-28T07:53:53.550Z,100974.55
2019-05-28T07:55:55.643Z,100981.47
2019-05-28T07:57:58.964Z,100980.08
2019-05-28T08:00:05.374Z,100981.55
2019-05-28T08:02:05.526Z,100986.83
2019-05-28T08:04:07.583Z,100981.19
2019-05-28T08:06:09.893Z,100990.75
2019-05-28T08:08:16.046Z,100988.80
2019-05-28T08:10:18.088Z,100992.95
2019-05-28T08:12:20.379Z,100994.26
2019-05-28T08:14:22.881Z,100998.29
2019-05-28T08:16:25.081Z,100999.14
2019-05-28T08:18:28.121Z,101000.25
2019-05-28T08:20:30.275Z,101005.57
2019-05-28T08:22:41.638Z,101004.16
2019-05-28T08:24:36.742Z,101011.45
2019-05-28T08:26:38.605Z,101008.89
2019-05-28T08:28:40.646Z,101012.11
2019-05-28T08:30:42.970Z,101011.40
2019-05-28T08:32:45.191Z,101014.44
2019-05-28T08:35:04.169Z,101013.63
2019-05-28T08:37:05.349Z,101021.00
2019-05-28T08:38:55.844Z,101019.94
2019-05-28T08:40:57.880Z,101032.16
2019-05-28T08:43:00.150Z,101029.47
2019-05-28T08:45:02.320Z,101033.84
2019-05-28T08:47:05.807Z,101040.95
2019-05-28T08:49:09.532Z,101040.03
2019-05-28T08:51:11.786Z,101038.15
2019-05-28T08:53:13.729Z,101048.31
2019-05-28T08:55:17.437Z,101045.05
2019-05-28T08:57:20.053Z,101044.10
2019-05-28T08:59:22.102Z,101054.23
2019-05-28T09:01:24.525Z,101053.05
2019-05-28T09:03:26.214Z,101066.02
2019-05-28T09:05:28.176Z,101062.30
2019-05-28T09:07:30.803Z,101061.48
2019-05-28T09:09:32.965Z,101061.68
2019-05-28T09:11:35.015Z,101061.68
2019-05-28T09:13:37.505Z,101057.63
2019-05-28T09:15:39.077Z,101064.52
2019-05-28T09:17:42.128Z,101072.53
2019-05-28T09:19:44.304Z,101068.33
2019-05-28T09:21:46.350Z,101072.96
2019-05-28T09:23:48.693Z,101080.45
2019-05-28T09:25:50.779Z,101076.17
2019-05-28T09:27:52.946Z,101076.04
2019-05-28T09:29:55.537Z,101084.86
2019-05-28T09:31:58.205Z,101083.91
2019-05-28T09:34:00.858Z,101086.10
2019-05-28T09:36:08.507Z,101097.01
2019-05-28T09:38:08.711Z,101095.39
2019-05-28T09:40:11.322Z,101095.00
2019-05-28T09:42:13.379Z,101100.82
2019-05-28T09:44:15.603Z,101101.05
2019-05-28T09:46:18.778Z,101108.55
2019-05-28T09:48:20.854Z,101118.63
2019-05-28T09:50:30.551Z,101118.63
2019-05-28T09:52:27.178Z,101116.39
2019-05-28T09:54:29.265Z,101114.41
2019-05-28T09:56:32.826Z,101122.81
2019-05-28T09:58:35.004Z,101127.41
2019-05-28T10:00:38.054Z,101125.48
2019-05-28T10:02:40.417Z,101124.89
2019-05-28T10:04:49.088Z,101131.38
2019-05-28T10:06:46.550Z,101135.25
2019-05-28T10:08:48.941Z,101134.62
2019-05-28T10:10:51.162Z,101139.45
2019-05-28T10:12:53.762Z,101140.20
2019-05-28T10:14:55.614Z,101144.45
2019-05-28T10:16:57.861Z,101147.27
2019-05-28T10:18:59.862Z,101151.96
2019-05-28T10:21:17.100Z,101152.66
2019-05-28T10:23:06.145Z,101157.19
2019-05-28T10:25:09.466Z,101156.22
2019-05-28T10:27:11.810Z,101157.19
2019-05-28T10:29:13.775Z,101165.50
2019-05-28T10:31:16.084Z,101159.11
2019-05-28T10:33:18.265Z,101167.69
2019-05-28T10:35:20.822Z,101169.37
2019-05-28T10:37:22.886Z,101169.91
2019-05-28T10:39:25.420Z,101166.28
2019-05-28T10:41:27.489Z,101169.27
2019-05-28T10:43:29.823Z,101167.77
2019-05-28T10:45:32.307Z,101164.50
2019-05-28T10:47:34.511Z,101167.28
2019-05-28T10:49:36.744Z,101169.01
2019-05-28T10:51:38.905Z,101172.72
2019-05-28T10:53:40.991Z,101168.30
2019-05-28T10:55:43.080Z,101168.30
2019-05-28T10:57:45.611Z,101181.86
2019-05-28T10:59:47.302Z,101192.95
2019-05-28T11:01:49.657Z,101194.66
2019-05-28T11:03:51.883Z,101195.39
2019-05-28T11:05:53.937Z,101201.36
2019-05-28T11:07:56.024Z,101206.20
2019-05-28T11:09:58.283Z,101203.92
2019-05-28T11:12:00.343Z,101206.92
2019-05-28T11:14:02.435Z,101210.16
2019-05-28T11:16:04.988Z,101210.27
2019-05-28T11:18:06.901Z,101211.62
2019-05-28T11:20:10.542Z,101210.50
2019-05-28T11:22:13.325Z,101215.08
2019-05-28T11:24:15.417Z,101218.95
2019-05-28T11:26:17.950Z,101219.11
2019-05-28T11:28:20.083Z,101216.27
2019-05-28T11:30:22.840Z,101217.30
2019-05-28T11:32:25.062Z,101220.33
2019-05-28T11:34:27.641Z,101224.03
2019-05-28T11:36:29.734Z,101224.72
2019-05-28T11:38:31.746Z,101226.80
2019-05-28T11:40:33.937Z,101225.64
2019-05-28T11:42:35.968Z,101233.52
2019-05-28T11:44:37.998Z,101239.06
2019-05-28T11:46:40.334Z,101238.09
2019-05-28T11:48:43.536Z,101235.69
2019-05-28T11:50:45.558Z,101242.04
2019-05-28T11:52:48.552Z,101249.56
2019-05-28T11:54:51.034Z,101242.17
2019-05-28T11:56:52.618Z,101253.66
2019-05-28T11:58:55.636Z,101256.38
2019-05-28T12:00:57.833Z,101255.83
2019-05-28T12:02:59.862Z,101255.45
2019-05-28T12:05:02.272Z,101253.56
2019-05-28T12:07:06.230Z,101249.89
2019-05-28T12:09:08.316Z,101250.59
2019-05-28T12:11:10.695Z,101262.97
2019-05-28T12:13:13.443Z,101266.59
2019-05-28T12:15:20.022Z,101266.08
2019-05-28T12:17:40.775Z,101268.78
2019-05-28T12:19:26.421Z,101271.13
2019-05-28T12:21:28.696Z,101274.84
2019-05-28T12:23:31.149Z,101287.78
2019-05-28T12:25:33.299Z,101284.45
2019-05-28T12:27:36.416Z,101290.59
2019-05-28T12:29:51.428Z,101288.98
2019-05-28T12:31:43.985Z,101291.24
2019-05-28T12:33:46.047Z,101297.53
2019-05-28T12:35:48.184Z,101303.59
2019-05-28T12:37:51.040Z,101307.83
2019-05-28T12:39:53.369Z,101304.52
2019-05-28T12:42:03.201Z,101309.71
2019-05-28T12:43:59.573Z,101310.94
2019-05-28T12:46:01.864Z,101311.33
2019-05-28T12:48:11.900Z,101309.67
2019-05-28T12:50:18.922Z,101313.78
2019-05-28T12:52:13.276Z,101309.00
2019-05-28T12:54:16.731Z,101319.39
2019-05-28T12:56:18.950Z,101315.46
2019-05-28T12:58:21.069Z,101324.22
2019-05-28T13:00:25.794Z,101315.13
2019-05-28T13:02:27.936Z,101315.13
2019-05-28T13:04:30.057Z,101334.28
2019-05-28T13:06:32.274Z,101327.48
2019-05-28T13:08:34.355Z,101325.20
2019-05-28T13:10:36.513Z,101333.27
2019-05-28T13:12:38.977Z,101336.86
2019-05-28T13:14:41.422Z,101336.13
2019-05-28T13:16:43.317Z,101345.17
2019-05-28T13:18:47.319Z,101343.30
2019-05-28T13:20:49.392Z,101351.86
2019-05-28T13:22:51.497Z,101350.50
2019-05-28T13:24:53.804Z,101351.44
2019-05-28T13:26:55.866Z,101349.36
2019-05-28T13:28:58.029Z,101355.33
2019-05-28T13:31:00.411Z,101365.98
2019-05-28T13:33:02.377Z,101363.72
2019-05-28T13:35:05.662Z,101363.00
2019-05-28T13:37:08.157Z,101369.50
2019-05-28T13:39:10.479Z,101373.88
2019-05-28T13:41:12.736Z,101376.66
2019-05-28T13:43:16.327Z,101374.59
2019-05-28T13:45:19.704Z,101371.67
2019-05-28T13:47:32.927Z,101373.88
2019-05-28T13:49:26.332Z,101380.78
2019-05-28T13:51:28.854Z,101386.84
2019-05-28T13:53:30.986Z,101380.13
2019-05-28T13:55:33.655Z,101384.98
2019-05-28T13:57:39.212Z,101390.73
2019-05-28T13:59:39.922Z,101392.62
2019-05-28T14:01:42.303Z,101388.69
2019-05-28T14:03:44.517Z,101400.47
2019-05-28T14:05:48.738Z,101395.85
2019-05-28T14:07:51.146Z,101410.44
2019-05-28T14:09:54.022Z,101409.73
2019-05-28T14:11:56.052Z,101418.02
2019-05-28T14:14:04.054Z,101415.97
2019-05-28T14:16:06.116Z,101420.68
2019-05-28T14:18:08.281Z,101414.75
2019-05-28T14:20:11.857Z,101428.22
2019-05-28T14:22:14.109Z,101428.25
2019-05-28T14:24:16.069Z,101432.28
2019-05-28T14:26:19.009Z,101428.91
2019-05-28T14:28:21.223Z,101437.64
2019-05-28T14:30:23.831Z,101433.55
2019-05-28T14:32:26.242Z,101435.50
2019-05-28T14:34:28.430Z,101444.81
2019-05-28T14:36:30.523Z,101448.71
2019-05-28T14:38:33.569Z,101449.40
2019-05-28T14:40:35.814Z,101451.05
2019-05-28T14:42:38.020Z,101458.15
2019-05-28T14:44:43.256Z,101459.11
2019-05-28T14:46:45.250Z,101462.88
2019-05-28T14:48:47.383Z,101470.24
2019-05-28T14:50:49.632Z,101468.48
2019-05-28T14:52:51.780Z,101467.28
2019-05-28T14:54:53.853Z,101475.20
2019-05-28T14:56:56.891Z,101467.52
2019-05-28T14:58:59.208Z,101477.84
2019-05-28T15:01:01.602Z,101472.98
2019-05-28T15:03:03.771Z,101478.80
2019-05-28T15:05:06.156Z,101485.83
2019-05-28T15:07:07.947Z,101486.75
2019-05-28T15:09:20.993Z,101494.36
2019-05-28T15:11:14.672Z,101486.88
2019-05-28T15:13:16.889Z,101489.39
2019-05-28T15:15:34.475Z,101487.86
2019-05-28T15:17:26.716Z,101477.21
2019-05-28T15:19:28.244Z,101497.14
2019-05-28T15:21:30.866Z,101504.03
2019-05-28T15:23:32.888Z,101508.77
2019-05-28T15:25:35.021Z,101509.81
2019-05-28T15:27:37.248Z,101516.34
2019-05-28T15:29:39.437Z,101517.30
2019-05-28T15:31:41.488Z,101513.86
2019-05-28T15:33:43.536Z,101524.12
2019-05-28T15:35:47.253Z,101532.75
2019-05-28T15:37:49.535Z,101536.55
2019-05-28T15:39:51.807Z,101539.58
2019-05-28T15:41:53.982Z,101530.53
2019-05-28T15:43:56.569Z,101546.61
2019-05-28T15:45:59.001Z,101537.16
2019-05-28T15:48:01.050Z,101546.66
2019-05-28T15:50:04.235Z,101535.17
2019-05-28T15:52:07.973Z,101546.48
2019-05-28T15:54:10.382Z,101554.55
2019-05-28T15:56:12.508Z,101554.45
2019-05-28T15:58:15.868Z,101539.55
2019-05-28T16:00:20.971Z,101548.66
2019-05-28T16:02:22.969Z,101553.52
2019-05-28T16:04:25.654Z,101558.84
2019-05-28T16:06:27.873Z,101554.25
2019-05-28T16:08:30.011Z,101560.87
2019-05-28T16:10:32.325Z,101569.02
2019-05-28T16:12:34.737Z,101563.16
2019-05-28T16:14:36.338Z,101575.34
2019-05-28T16:16:38.407Z,101575.97
2019-05-28T16:18:40.888Z,101594.74
2019-05-28T16:20:42.962Z,101582.31
2019-05-28T16:22:45.071Z,101580.32
2019-05-28T16:24:47.118Z,101582.08
2019-05-28T16:26:49.360Z,101583.32
2019-05-28T16:28:51.548Z,101591.75
2019-05-28T16:31:11.136Z,101593.23
2019-05-28T16:32:57.712Z,101590.52
2019-05-28T16:34:59.847Z,101603.45
2019-05-28T16:37:02.086Z,101596.28
2019-05-28T16:39:07.691Z,101604.78
2019-05-28T16:41:11.694Z,101611.13
2019-05-28T16:43:13.938Z,101611.15
2019-05-28T16:45:16.898Z,101614.83
2019-05-28T16:47:19.284Z,101617.52
2019-05-28T16:49:21.139Z,101618.36
2019-05-28T16:51:23.334Z,101612.83
2019-05-28T16:53:25.765Z,101626.00
2019-05-28T16:55:27.846Z,101618.70
2019-05-28T16:57:29.921Z,101622.89
2019-05-28T16:59:32.260Z,101628.03
2019-05-28T17:01:34.396Z,101631.62
2019-05-28T17:03:36.415Z,101627.28
2019-05-28T17:05:38.499Z,101626.67
2019-05-28T17:07:40.694Z,101633.97
2019-05-28T17:09:42.753Z,101627.39
2019-05-28T17:11:45.089Z,101636.64
2019-05-28T17:13:49.388Z,101638.84
2019-05-28T17:15:52.226Z,101643.61
2019-05-28T17:17:54.602Z,101653.45
2019-05-28T17:19:56.664Z,101640.36
2019-05-28T17:21:59.039Z,101650.69
2019-05-28T17:24:00.965Z,101647.42
2019-05-28T17:26:03.667Z,101659.16
2019-05-28T17:28:05.920Z,101647.14
2019-05-28T17:30:18.883Z,101655.31
2019-05-28T17:32:12.781Z,101668.19
2019-05-28T17:34:15.062Z,101657.36
2019-05-28T17:36:17.463Z,101672.70
2019-05-28T17:38:19.523Z,101668.52
2019-05-28T17:40:22.340Z,101668.19
2019-05-28T17:42:24.777Z,101659.16
2019-05-28T17:44:26.830Z,101665.42
2019-05-28T17:46:29.107Z,101669.66
2019-05-28T17:48:31.794Z,101675.81
2019-05-28T17:50:34.055Z,101671.77
2019-05-28T17:52:36.118Z,101680.47
2019-05-28T17:54:38.405Z,101687.05
2019-05-28T17:56:40.423Z,101697.48
2019-05-28T17:58:42.634Z,101699.22
2019-05-28T18:00:44.979Z,101700.19
2019-05-28T18:02:48.555Z,101695.88
2019-05-28T18:04:50.796Z,101701.30
2019-05-28T18:06:53.002Z,101705.47
2019-05-28T18:08:55.050Z,101716.69
2019-05-28T18:11:04.645Z,101718.59
2019-05-28T18:13:01.750Z,101717.52
2019-05-28T18:15:04.889Z,101724.78
2019-05-28T18:17:08.104Z,101725.88
2019-05-28T18:19:10.400Z,101725.58
2019-05-28T18:21:13.498Z,101724.68
2019-05-28T18:23:15.578Z,101729.48
2019-05-28T18:25:20.235Z,101730.62
2019-05-28T18:27:21.893Z,101726.32
2019-05-28T18:29:24.167Z,101726.23
2019-05-28T18:31:27.604Z,101738.41
2019-05-28T18:33:29.634Z,101738.73
2019-05-28T18:35:31.677Z,101740.28
2019-05-28T18:37:34.067Z,101746.38
2019-05-28T18:39:36.158Z,101750.12
2019-05-28T18:41:38.198Z,101759.73
2019-05-28T18:43:40.577Z,101760.96
2019-05-28T18:45:42.802Z,101764.98
2019-05-28T18:47:44.970Z,101767.44
2019-05-28T18:49:47.482Z,101768.20
2019-05-28T18:51:49.688Z,101775.04
2019-05-28T18:53:51.855Z,101774.23
2019-05-28T18:55:54.274Z,101775.88
2019-05-28T18:57:56.015Z,101778.70
2019-05-28T18:59:58.363Z,101790.84
2019-05-28T19:02:00.660Z,101795.56
2019-05-28T19:04:02.637Z,101797.06
2019-05-28T19:06:05.035Z,101792.05
2019-05-28T19:08:07.800Z,101799.45
2019-05-28T19:10:09.575Z,101795.06
2019-05-28T19:12:11.796Z,101799.83
2019-05-28T19:14:14.064Z,101796.94
2019-05-28T19:16:16.558Z,101804.34
2019-05-28T19:18:18.331Z,101804.98
2019-05-28T19:20:20.553Z,101804.19
2019-05-28T19:22:22.404Z,101809.79
2019-05-28T19:24:24.795Z,101800.61
2019-05-28T19:26:26.908Z,101812.31
2019-05-28T19:28:30.068Z,101811.50
2019-05-28T19:30:33.765Z,101825.42
2019-05-28T19:32:35.992Z,101826.73
2019-05-28T19:34:38.394Z,101821.11
2019-05-28T19:36:40.546Z,101825.11
2019-05-28T19:38:45.829Z,101825.89
2019-05-28T19:40:47.628Z,101831.02
2019-05-28T19:42:50.046Z,101834.59
2019-05-28T19:44:52.462Z,101839.55
2019-05-28T19:46:54.281Z,101839.05
2019-05-28T19:48:56.583Z,101844.72
2019-05-28T19:50:58.851Z,101843.69
2019-05-28T19:53:00.906Z,101855.75
2019-05-28T19:55:03.500Z,101850.83
2019-05-28T19:57:07.325Z,101858.52
2019-05-28T19:59:09.395Z,101857.70
2019-05-28T20:01:11.558Z,101868.30
2019-05-28T20:03:14.126Z,101865.42
2019-05-28T20:05:16.086Z,101879.73
2019-05-28T20:07:18.325Z,101877.06
2019-05-28T20:09:20.586Z,101877.45
2019-05-28T20:11:23.735Z,101880.25
2019-05-28T20:13:26.032Z,101878.30
2019-05-28T20:15:29.107Z,101880.75
2019-05-28T20:17:31.422Z,101888.59
2019-05-28T20:19:35.348Z,101883.53
2019-05-28T20:21:38.089Z,101886.80
2019-05-28T20:23:41.018Z,101881.41
2019-05-28T20:25:47.508Z,101883.48
2019-05-28T20:27:49.611Z,101900.47
2019-05-28T20:29:51.943Z,101896.33
2019-05-28T20:31:53.956Z,101903.98
2019-05-28T20:33:56.602Z,101902.66
2019-05-28T20:35:59.726Z,101904.08
2019-05-28T20:38:05.779Z,101901.06
2019-05-28T20:40:08.064Z,101915.65
2019-05-28T20:42:26.183Z,101915.65
2019-05-28T20:44:14.540Z,101912.16
2019-05-28T20:46:16.753Z,101918.94
2019-05-28T20:48:18.980Z,101915.98
2019-05-28T20:50:21.475Z,101920.50
2019-05-28T20:52:23.277Z,101914.48
2019-05-28T20:54:25.395Z,101926.22
2019-05-28T20:56:27.449Z,101928.22
2019-05-28T20:58:39.964Z,101935.45
2019-05-28T21:00:33.838Z,101940.97
2019-05-28T21:02:36.242Z,101937.96
2019-05-28T21:04:41.594Z,101945.80
2019-05-28T21:06:43.203Z,101950.04
2019-05-28T21:08:45.401Z,101945.47
2019-05-28T21:10:48.192Z,101943.19
2019-05-28T21:12:52.601Z,101946.64
2019-05-28T21:14:54.899Z,101949.94
2019-05-28T21:16:57.424Z,101953.84
2019-05-28T21:18:59.463Z,101958.33
2019-05-28T21:21:01.691Z,101951.55
2019-05-28T21:23:04.517Z,101949.88
2019-05-28T21:25:07.507Z,101950.49
2019-05-28T21:27:09.575Z,101953.76
2019-05-28T21:29:11.936Z,101952.44
2019-05-28T21:31:14.011Z,101955.83
2019-05-28T21:33:16.135Z,101959.15
2019-05-28T21:35:18.432Z,101959.81
2019-05-28T21:37:20.554Z,101955.94
2019-05-28T21:39:22.807Z,101965.91
2019-05-28T21:41:25.343Z,101963.41
2019-05-28T21:43:27.042Z,101967.22
2019-05-28T21:45:29.383Z,101970.05
2019-05-28T21:47:31.774Z,101970.15
2019-05-28T21:51:12.241Z,101982.42
2019-05-28T21:53:14.702Z,101975.22
2019-05-28T21:55:16.379Z,101976.59
2019-05-28T21:57:18.519Z,101978.84
2019-05-28T21:59:20.851Z,101982.92
2019-05-28T22:01:24.515Z,101981.59
2019-05-28T22:03:27.057Z,101981.59
2019-05-28T22:05:29.148Z,101985.38
2019-05-28T22:07:33.032Z,101982.26
2019-05-28T22:09:35.162Z,101988.28
2019-05-28T22:11:37.426Z,101989.97
2019-05-28T22:13:39.494Z,101980.83
2019-05-28T22:15:41.548Z,101988.55
2019-05-28T22:17:44.119Z,101995.03
2019-05-28T22:19:46.206Z,101997.37
2019-05-28T22:21:48.328Z,101998.75
2019-05-28T22:23:51.020Z,102001.21
2019-05-28T22:25:53.068Z,102001.56
2019-05-28T22:27:56.447Z,102003.91
2019-05-28T22:29:58.746Z,102004.04
2019-05-28T22:32:00.915Z,102014.55
2019-05-28T22:34:03.271Z,102012.48
2019-05-28T22:36:05.554Z,102017.75
2019-05-28T22:38:08.837Z,102015.47
2019-05-28T22:40:11.464Z,102023.67
2019-05-28T22:42:13.785Z,102022.00
2019-05-28T22:44:15.967Z,102022.09
2019-05-28T22:46:18.163Z,102021.48
2019-05-28T22:48:21.083Z,102018.26
2019-05-28T22:50:23.594Z,102023.24
2019-05-28T22:52:25.735Z,102031.85
2019-05-28T22:54:28.097Z,102032.06
2019-05-28T22:56:30.243Z,102019.72
2019-05-28T22:58:32.381Z,102036.28
2019-05-28T23:00:34.581Z,102037.63
2019-05-28T23:02:36.689Z,102038.70
2019-05-28T23:04:38.824Z,102035.91
2019-05-28T23:06:41.282Z,102040.37
2019-05-28T23:08:43.878Z,102039.08
2019-05-28T23:10:45.931Z,102039.11
2019-05-28T23:12:48.174Z,102041.56
2019-05-28T23:14:50.624Z,102046.09
2019-05-28T23:16:53.689Z,102046.65
2019-05-28T23:18:56.011Z,102052.05
2019-05-28T23:20:58.189Z,102057.00